ポンペイ島 の空港の天気 - METARとTAF

ポンペイ国際空港 ( PTPN / PNI ) - ミクロネシア連邦 ポンペイ島
飛行場実況気象(Metar)
観測時間07/22 12:53 +11 (07/22 01:53 UTC)
風向・風速西 3m/s
視程10km以上
天気現象
全天の4割程度の雲 雲底高度 550m
全天の8割程度の雲 雲底高度 9140m
気温31℃
湿度70%
気圧1007hPa
METARPTPN 220153Z 26005KT 15SM SCT018TCU BKN300 31/25 A2974 RMK TCU SE-SW
過去の天気等 Google飛行場航空写真 Wunderground天気予報

過去48時間のMETAR

飛行場予報(TAF)
発表時間: 7/22 10:39 +11 (7/21 23:39 UTC)
予報対象時間: 22日11時 +11 ~ 23日11時 +11
風向・風速不定 3m/s
視程10km以上
天気現象周辺でしゅう雨
全天の4割程度の雲 雲底高度 550m
全天の4割程度の雲 雲底高度 1220m
PTPN 212339Z 2200/2224 VRB06KT P6SM VCSH SCT018 SCT040